Etusivu
METAR-TAF:

METAR-TAF

Lentoasemat :

Chibougamau, Quebec, Kanada

Leveyspiiri: 49-46N, Pituuspiiri: 074-32W, korkeus merenpinnasta: 388 m

Tämänhetkinen sää

Tämä raportti tehtiin 1 tunti ja 9 minuuttia sitten, kello 19.00 UTC
Tuuli 12 kn pohjoisen/luoteesta puuskistuen 20 kn:hen, vaihdellen lännen/luoteen ja koillisen välillä
Lämpötila 25°C
Kosteus 26%
Ilmanpaine 1013 hPa
Näkyvyys: 14.5 km
selkeää

METAR: CYMT 031900Z AUTO 33012G20KT 300V050 9SM CLR 25/04 A2992 RMK SLP137 DENSITY ALT 2700FT

Aika: 16:09 (20:09 UTC)

Sääennuste

Tämä raportti tehtiin 2 tuntia ja 31 minuuttia sitten, kello 17.38 UTC
Ennuste voimassa 03. päivästä klo 18 UTC - 03. päivään klo 24 UTC
Tuuli 10 kn luoteesta puuskistuen 20 kn:hen
Näkyvyys: 10 km
Hajonneita pilviä 24000 ft:n korkeudessa

TAF: CYMT 031738Z 0318/0324 31010G20KT P6SM BKN240 RMK FCST BASED ON AUTO OBS. NXT FCST WILL BE ISSUED AT 041145Z

Säähavainnot ja -ennusteet yli 4000 lentoasemalta (METAR- ja TAF-raportit).

Käytössä olevat sääasemat on merkitty karttaan keltaisilla ja punaisilla pisteillä.

Aseta hiiri pisteen päälle nähdäksesi sääaseman nimen.

Klikkaa sitten nähdäksesi säähavainnot ja -ennusteet.

Kartan vaihtaminen: klikkaa mustalla rastilla varustettuja vihreitä pisteitä, niin voit zoomata sisään; viivalla varustettua vihreää pistettä, niin voit zoomata ulos tai vihreitä nuolia, niin pääset viereisille kartoille.


METAR-TAF: